sensor_id;sensor_type;location;lat;lon;timestamp;P1;durP1;ratioP1;P2;durP2;ratioP2
13834;SDS011;6988;52.614;13.500;2023-10-09T00:01:34;3.87;;;1.60;;
13834;SDS011;6988;52.614;13.500;2023-10-09T00:06:28;3.40;;;1.70;;
13834;SDS011;6988;52.614;13.500;2023-10-09T00:11:27;2.67;;;1.60;;
13834;SDS011;6988;52.614;13.500;2023-10-09T00:16:20;3.60;;;1.77;;
13834;SDS011;6988;52.614;13.500;2023-10-09T00:21:26;2.83;;;1.83;;
13834;SDS011;6988;52.614;13.500;2023-10-09T00:26:24;4.80;;;1.70;;
13834;SDS011;6988;52.614;13.500;2023-10-09T00:31:19;3.00;;;1.80;;
13834;SDS011;6988;52.614;13.500;2023-10-09T00:36:23;3.70;;;1.80;;
13834;SDS011;6988;52.614;13.500;2023-10-09T00:41:20;3.53;;;1.93;;
13834;SDS011;6988;52.614;13.500;2023-10-09T00:46:16;3.67;;;1.80;;
13834;SDS011;6988;52.614;13.500;2023-10-09T00:51:14;2.07;;;1.50;;
13834;SDS011;6988;52.614;13.500;2023-10-09T00:56:08;3.47;;;1.80;;
13834;SDS011;6988;52.614;13.500;2023-10-09T01:01:11;6.50;;;1.67;;
13834;SDS011;6988;52.614;13.500;2023-10-09T01:06:06;4.40;;;1.87;;
13834;SDS011;6988;52.614;13.500;2023-10-09T01:11:07;3.20;;;2.03;;
13834;SDS011;6988;52.614;13.500;2023-10-09T01:16:08;3.10;;;2.03;;
13834;SDS011;6988;52.614;13.500;2023-10-09T01:21:06;4.03;;;2.10;;
13834;SDS011;6988;52.614;13.500;2023-10-09T01:26:04;3.57;;;2.23;;
13834;SDS011;6988;52.614;13.500;2023-10-09T01:30:58;3.47;;;2.00;;
13834;SDS011;6988;52.614;13.500;2023-10-09T01:35:51;4.70;;;2.13;;
13834;SDS011;6988;52.614;13.500;2023-10-09T01:40:48;2.37;;;1.87;;
13834;SDS011;6988;52.614;13.500;2023-10-09T01:45:43;3.27;;;2.00;;
13834;SDS011;6988;52.614;13.500;2023-10-09T01:57:08;3.43;;;2.40;;
13834;SDS011;6988;52.614;13.500;2023-10-09T02:02:05;3.47;;;2.00;;
13834;SDS011;6988;52.614;13.500;2023-10-09T02:07:15;3.70;;;2.13;;
13834;SDS011;6988;52.614;13.500;2023-10-09T02:12:12;3.07;;;1.90;;
13834;SDS011;6988;52.614;13.500;2023-10-09T02:17:06;4.37;;;2.20;;
13834;SDS011;6988;52.614;13.500;2023-10-09T02:22:00;2.83;;;1.90;;
13834;SDS011;6988;52.614;13.500;2023-10-09T02:27:02;3.40;;;2.10;;
13834;SDS011;6988;52.614;13.500;2023-10-09T02:31:57;3.20;;;1.80;;
13834;SDS011;6988;52.614;13.500;2023-10-09T02:37:04;4.83;;;2.07;;
13834;SDS011;6988;52.614;13.500;2023-10-09T02:42:01;5.83;;;2.30;;
13834;SDS011;6988;52.614;13.500;2023-10-09T02:47:09;3.93;;;2.00;;
13834;SDS011;6988;52.614;13.500;2023-10-09T02:52:09;4.27;;;2.00;;
13834;SDS011;6988;52.614;13.500;2023-10-09T02:57:01;3.93;;;2.20;;
13834;SDS011;6988;52.614;13.500;2023-10-09T03:01:58;5.03;;;2.50;;
13834;SDS011;6988;52.614;13.500;2023-10-09T03:06:50;4.93;;;2.57;;
13834;SDS011;6988;52.614;13.500;2023-10-09T03:11:46;4.47;;;2.47;;
13834;SDS011;6988;52.614;13.500;2023-10-09T03:16:43;3.13;;;2.47;;
13834;SDS011;6988;52.614;13.500;2023-10-09T03:21:35;5.17;;;2.40;;
13834;SDS011;6988;52.614;13.500;2023-10-09T03:26:26;4.73;;;3.00;;
13834;SDS011;6988;52.614;13.500;2023-10-09T03:31:22;4.87;;;2.87;;
13834;SDS011;6988;52.614;13.500;2023-10-09T03:36:17;6.77;;;3.00;;
13834;SDS011;6988;52.614;13.500;2023-10-09T03:41:09;3.60;;;2.80;;
13834;SDS011;6988;52.614;13.500;2023-10-09T03:46:02;4.67;;;3.17;;
13834;SDS011;6988;52.614;13.500;2023-10-09T03:51:04;5.23;;;3.00;;
13834;SDS011;6988;52.614;13.500;2023-10-09T03:56:01;5.13;;;3.00;;
13834;SDS011;6988;52.614;13.500;2023-10-09T04:00:55;4.57;;;3.00;;
13834;SDS011;6988;52.614;13.500;2023-10-09T04:05:47;5.80;;;3.23;;
13834;SDS011;6988;52.614;13.500;2023-10-09T04:10:43;3.93;;;3.07;;
13834;SDS011;6988;52.614;13.500;2023-10-09T04:15:41;5.57;;;3.33;;
13834;SDS011;6988;52.614;13.500;2023-10-09T04:20:33;5.47;;;3.40;;
13834;SDS011;6988;52.614;13.500;2023-10-09T04:25:44;5.27;;;3.33;;
13834;SDS011;6988;52.614;13.500;2023-10-09T04:30:41;5.93;;;3.70;;
13834;SDS011;6988;52.614;13.500;2023-10-09T04:35:33;8.27;;;3.63;;
13834;SDS011;6988;52.614;13.500;2023-10-09T04:40:25;7.77;;;4.00;;
13834;SDS011;6988;52.614;13.500;2023-10-09T04:45:34;7.73;;;3.93;;
13834;SDS011;6988;52.614;13.500;2023-10-09T04:50:49;8.10;;;4.27;;
13834;SDS011;6988;52.614;13.500;2023-10-09T04:55:59;5.97;;;4.10;;
13834;SDS011;6988;52.614;13.500;2023-10-09T05:00:56;7.37;;;3.90;;
13834;SDS011;6988;52.614;13.500;2023-10-09T05:06:02;5.87;;;4.07;;
13834;SDS011;6988;52.614;13.500;2023-10-09T05:11:10;6.80;;;3.87;;
13834;SDS011;6988;52.614;13.500;2023-10-09T05:16:25;7.10;;;4.67;;
13834;SDS011;6988;52.614;13.500;2023-10-09T05:21:19;6.60;;;4.93;;
13834;SDS011;6988;52.614;13.500;2023-10-09T05:26:35;7.60;;;5.23;;
13834;SDS011;6988;52.614;13.500;2023-10-09T05:31:42;7.77;;;5.70;;
13834;SDS011;6988;52.614;13.500;2023-10-09T05:36:47;11.27;;;8.57;;
13834;SDS011;6988;52.614;13.500;2023-10-09T05:41:38;13.23;;;8.77;;
13834;SDS011;6988;52.614;13.500;2023-10-09T05:46:51;10.60;;;8.80;;
13834;SDS011;6988;52.614;13.500;2023-10-09T05:52:12;10.37;;;8.17;;
13834;SDS011;6988;52.614;13.500;2023-10-09T05:57:43;10.17;;;8.23;;
13834;SDS011;6988;52.614;13.500;2023-10-09T06:02:51;10.47;;;8.37;;
13834;SDS011;6988;52.614;13.500;2023-10-09T06:08:00;9.53;;;7.83;;
13834;SDS011;6988;52.614;13.500;2023-10-09T06:12:57;9.70;;;7.70;;
13834;SDS011;6988;52.614;13.500;2023-10-09T06:17:55;10.57;;;8.30;;
13834;SDS011;6988;52.614;13.500;2023-10-09T06:23:07;11.90;;;8.17;;
13834;SDS011;6988;52.614;13.500;2023-10-09T06:28:06;12.23;;;8.37;;
13834;SDS011;6988;52.614;13.500;2023-10-09T06:33:00;11.43;;;8.67;;
13834;SDS011;6988;52.614;13.500;2023-10-09T06:38:19;10.47;;;8.50;;
13834;SDS011;6988;52.614;13.500;2023-10-09T06:43:30;9.53;;;7.60;;
13834;SDS011;6988;52.614;13.500;2023-10-09T06:48:28;10.50;;;8.13;;
13834;SDS011;6988;52.614;13.500;2023-10-09T06:53:35;8.80;;;7.17;;
13834;SDS011;6988;52.614;13.500;2023-10-09T06:58:45;10.30;;;7.90;;
13834;SDS011;6988;52.614;13.500;2023-10-09T07:03:39;9.67;;;7.70;;
13834;SDS011;6988;52.614;13.500;2023-10-09T07:08:42;10.27;;;7.93;;
13834;SDS011;6988;52.614;13.500;2023-10-09T07:13:48;8.57;;;6.83;;
13834;SDS011;6988;52.614;13.500;2023-10-09T07:18:47;8.90;;;7.23;;
13834;SDS011;6988;52.614;13.500;2023-10-09T07:23:44;10.97;;;7.93;;
13834;SDS011;6988;52.614;13.500;2023-10-09T07:28:39;12.87;;;8.83;;
13834;SDS011;6988;52.614;13.500;2023-10-09T07:33:38;10.03;;;8.40;;
13834;SDS011;6988;52.614;13.500;2023-10-09T07:38:48;9.40;;;8.10;;
13834;SDS011;6988;52.614;13.500;2023-10-09T07:43:45;10.53;;;8.67;;
13834;SDS011;6988;52.614;13.500;2023-10-09T07:48:37;14.10;;;10.47;;
13834;SDS011;6988;52.614;13.500;2023-10-09T07:53:42;13.23;;;10.50;;
13834;SDS011;6988;52.614;13.500;2023-10-09T07:58:36;13.07;;;10.50;;
13834;SDS011;6988;52.614;13.500;2023-10-09T08:03:36;12.47;;;9.83;;
13834;SDS011;6988;52.614;13.500;2023-10-09T08:08:29;13.27;;;10.90;;
13834;SDS011;6988;52.614;13.500;2023-10-09T08:13:47;13.47;;;12.00;;
13834;SDS011;6988;52.614;13.500;2023-10-09T08:18:47;12.37;;;10.00;;
13834;SDS011;6988;52.614;13.500;2023-10-09T08:23:41;12.80;;;10.63;;
13834;SDS011;6988;52.614;13.500;2023-10-09T08:28:43;13.03;;;11.17;;
13834;SDS011;6988;52.614;13.500;2023-10-09T08:33:37;13.70;;;11.47;;
13834;SDS011;6988;52.614;13.500;2023-10-09T08:38:34;9.30;;;7.90;;
13834;SDS011;6988;52.614;13.500;2023-10-09T08:43:26;9.60;;;8.00;;
13834;SDS011;6988;52.614;13.500;2023-10-09T08:48:24;9.23;;;8.20;;
13834;SDS011;6988;52.614;13.500;2023-10-09T08:53:19;10.53;;;9.43;;
13834;SDS011;6988;52.614;13.500;2023-10-09T08:58:13;12.40;;;10.87;;
13834;SDS011;6988;52.614;13.500;2023-10-09T09:03:09;12.97;;;10.93;;
13834;SDS011;6988;52.614;13.500;2023-10-09T09:08:02;13.80;;;11.10;;
13834;SDS011;6988;52.614;13.500;2023-10-09T09:13:06;14.57;;;11.70;;
13834;SDS011;6988;52.614;13.500;2023-10-09T09:18:08;13.47;;;12.03;;
13834;SDS011;6988;52.614;13.500;2023-10-09T09:23:01;13.40;;;12.03;;
13834;SDS011;6988;52.614;13.500;2023-10-09T09:27:55;11.77;;;9.73;;
13834;SDS011;6988;52.614;13.500;2023-10-09T09:33:05;13.07;;;11.20;;
13834;SDS011;6988;52.614;13.500;2023-10-09T09:38:10;12.50;;;10.43;;
13834;SDS011;6988;52.614;13.500;2023-10-09T09:43:07;10.07;;;8.93;;
13834;SDS011;6988;52.614;13.500;2023-10-09T09:48:12;10.03;;;8.07;;
13834;SDS011;6988;52.614;13.500;2023-10-09T09:53:06;10.87;;;7.50;;
13834;SDS011;6988;52.614;13.500;2023-10-09T09:58:01;10.67;;;7.70;;
13834;SDS011;6988;52.614;13.500;2023-10-09T10:02:57;9.13;;;6.97;;
13834;SDS011;6988;52.614;13.500;2023-10-09T10:08:01;8.47;;;7.67;;
13834;SDS011;6988;52.614;13.500;2023-10-09T10:12:56;9.13;;;7.97;;
13834;SDS011;6988;52.614;13.500;2023-10-09T10:18:09;10.60;;;8.70;;
13834;SDS011;6988;52.614;13.500;2023-10-09T10:23:16;9.77;;;8.77;;
13834;SDS011;6988;52.614;13.500;2023-10-09T10:28:20;11.53;;;8.77;;
13834;SDS011;6988;52.614;13.500;2023-10-09T10:33:26;10.10;;;8.40;;
13834;SDS011;6988;52.614;13.500;2023-10-09T10:39:03;10.47;;;9.23;;
13834;SDS011;6988;52.614;13.500;2023-10-09T10:44:00;10.70;;;9.60;;
13834;SDS011;6988;52.614;13.500;2023-10-09T10:49:12;12.30;;;10.20;;
13834;SDS011;6988;52.614;13.500;2023-10-09T10:54:12;11.10;;;9.90;;
13834;SDS011;6988;52.614;13.500;2023-10-09T10:59:32;14.23;;;11.83;;
13834;SDS011;6988;52.614;13.500;2023-10-09T11:04:31;11.27;;;10.17;;
13834;SDS011;6988;52.614;13.500;2023-10-09T11:09:44;9.67;;;8.47;;
13834;SDS011;6988;52.614;13.500;2023-10-09T11:14:58;9.00;;;7.97;;
13834;SDS011;6988;52.614;13.500;2023-10-09T11:19:58;11.13;;;9.50;;
13834;SDS011;6988;52.614;13.500;2023-10-09T11:25:12;12.00;;;9.20;;
13834;SDS011;6988;52.614;13.500;2023-10-09T11:30:08;12.13;;;9.87;;
13834;SDS011;6988;52.614;13.500;2023-10-09T11:35:13;10.00;;;8.40;;
13834;SDS011;6988;52.614;13.500;2023-10-09T11:45:40;6.80;;;5.80;;
13834;SDS011;6988;52.614;13.500;2023-10-09T11:50:44;8.00;;;6.67;;
13834;SDS011;6988;52.614;13.500;2023-10-09T11:56:02;8.27;;;6.83;;
13834;SDS011;6988;52.614;13.500;2023-10-09T12:00:54;6.30;;;5.30;;
13834;SDS011;6988;52.614;13.500;2023-10-09T12:05:49;6.20;;;5.60;;
13834;SDS011;6988;52.614;13.500;2023-10-09T12:10:41;6.73;;;5.70;;
13834;SDS011;6988;52.614;13.500;2023-10-09T12:15:35;6.90;;;5.70;;
13834;SDS011;6988;52.614;13.500;2023-10-09T12:20:30;7.57;;;5.33;;
13834;SDS011;6988;52.614;13.500;2023-10-09T12:25:22;6.90;;;5.03;;
13834;SDS011;6988;52.614;13.500;2023-10-09T12:30:14;6.03;;;4.60;;
13834;SDS011;6988;52.614;13.500;2023-10-09T12:35:08;5.63;;;4.50;;
13834;SDS011;6988;52.614;13.500;2023-10-09T12:40:07;5.83;;;4.50;;
13834;SDS011;6988;52.614;13.500;2023-10-09T12:45:00;4.70;;;4.20;;
13834;SDS011;6988;52.614;13.500;2023-10-09T12:49:58;4.93;;;4.40;;
13834;SDS011;6988;52.614;13.500;2023-10-09T12:54:51;5.03;;;4.20;;
13834;SDS011;6988;52.614;13.500;2023-10-09T12:59:43;5.67;;;4.67;;
13834;SDS011;6988;52.614;13.500;2023-10-09T13:04:35;6.80;;;4.87;;
13834;SDS011;6988;52.614;13.500;2023-10-09T13:09:31;5.97;;;4.53;;
13834;SDS011;6988;52.614;13.500;2023-10-09T13:14:34;6.57;;;5.00;;
13834;SDS011;6988;52.614;13.500;2023-10-09T13:19:25;6.17;;;4.93;;
13834;SDS011;6988;52.614;13.500;2023-10-09T13:24:17;5.80;;;5.20;;
13834;SDS011;6988;52.614;13.500;2023-10-09T13:29:14;7.73;;;5.17;;
13834;SDS011;6988;52.614;13.500;2023-10-09T13:34:13;7.53;;;5.80;;
13834;SDS011;6988;52.614;13.500;2023-10-09T13:39:06;6.77;;;5.50;;
13834;SDS011;6988;52.614;13.500;2023-10-09T13:44:13;7.87;;;6.07;;
13834;SDS011;6988;52.614;13.500;2023-10-09T13:49:05;8.20;;;5.73;;
13834;SDS011;6988;52.614;13.500;2023-10-09T13:54:03;6.57;;;5.83;;
13834;SDS011;6988;52.614;13.500;2023-10-09T13:58:57;8.07;;;7.27;;
13834;SDS011;6988;52.614;13.500;2023-10-09T14:03:50;8.10;;;7.30;;
13834;SDS011;6988;52.614;13.500;2023-10-09T14:08:43;8.53;;;6.37;;
13834;SDS011;6988;52.614;13.500;2023-10-09T14:13:36;8.60;;;7.43;;
13834;SDS011;6988;52.614;13.500;2023-10-09T14:18:28;9.50;;;7.93;;
13834;SDS011;6988;52.614;13.500;2023-10-09T14:23:20;8.27;;;7.47;;
13834;SDS011;6988;52.614;13.500;2023-10-09T14:28:14;8.40;;;7.10;;
13834;SDS011;6988;52.614;13.500;2023-10-09T14:33:10;10.67;;;8.50;;
13834;SDS011;6988;52.614;13.500;2023-10-09T14:38:03;9.57;;;7.47;;
13834;SDS011;6988;52.614;13.500;2023-10-09T14:43:01;11.63;;;8.57;;
13834;SDS011;6988;52.614;13.500;2023-10-09T14:47:53;6.90;;;6.20;;
13834;SDS011;6988;52.614;13.500;2023-10-09T14:52:47;7.47;;;6.77;;
13834;SDS011;6988;52.614;13.500;2023-10-09T14:57:40;7.07;;;6.37;;
13834;SDS011;6988;52.614;13.500;2023-10-09T15:02:32;9.10;;;7.03;;
13834;SDS011;6988;52.614;13.500;2023-10-09T15:07:24;7.07;;;6.30;;
13834;SDS011;6988;52.614;13.500;2023-10-09T15:12:19;9.13;;;7.30;;
13834;SDS011;6988;52.614;13.500;2023-10-09T15:17:13;9.57;;;7.07;;
13834;SDS011;6988;52.614;13.500;2023-10-09T15:22:06;8.67;;;7.53;;
13834;SDS011;6988;52.614;13.500;2023-10-09T15:27:00;7.90;;;6.47;;
13834;SDS011;6988;52.614;13.500;2023-10-09T15:31:53;8.63;;;7.27;;
13834;SDS011;6988;52.614;13.500;2023-10-09T15:36:45;7.80;;;6.73;;
13834;SDS011;6988;52.614;13.500;2023-10-09T15:41:38;9.00;;;7.60;;
13834;SDS011;6988;52.614;13.500;2023-10-09T15:46:30;9.50;;;8.37;;
13834;SDS011;6988;52.614;13.500;2023-10-09T15:51:25;7.73;;;6.77;;
13834;SDS011;6988;52.614;13.500;2023-10-09T15:56:19;8.23;;;7.43;;
13834;SDS011;6988;52.614;13.500;2023-10-09T16:01:12;9.93;;;8.93;;
13834;SDS011;6988;52.614;13.500;2023-10-09T16:06:05;10.13;;;8.23;;
13834;SDS011;6988;52.614;13.500;2023-10-09T16:11:03;9.83;;;7.20;;
13834;SDS011;6988;52.614;13.500;2023-10-09T16:15:55;8.90;;;6.63;;
13834;SDS011;6988;52.614;13.500;2023-10-09T16:20:49;8.27;;;6.50;;
13834;SDS011;6988;52.614;13.500;2023-10-09T16:25:42;9.20;;;7.10;;
13834;SDS011;6988;52.614;13.500;2023-10-09T16:30:36;8.47;;;6.77;;
13834;SDS011;6988;52.614;13.500;2023-10-09T16:35:28;8.50;;;7.50;;
13834;SDS011;6988;52.614;13.500;2023-10-09T16:40:24;11.03;;;7.10;;
13834;SDS011;6988;52.614;13.500;2023-10-09T16:45:16;7.83;;;7.03;;
13834;SDS011;6988;52.614;13.500;2023-10-09T16:50:09;9.70;;;7.47;;
13834;SDS011;6988;52.614;13.500;2023-10-09T16:55:02;9.10;;;7.23;;
13834;SDS011;6988;52.614;13.500;2023-10-09T16:59:59;8.70;;;7.70;;
13834;SDS011;6988;52.614;13.500;2023-10-09T17:04:50;8.37;;;7.57;;
13834;SDS011;6988;52.614;13.500;2023-10-09T17:09:45;9.50;;;7.63;;
13834;SDS011;6988;52.614;13.500;2023-10-09T17:14:38;9.30;;;7.50;;
13834;SDS011;6988;52.614;13.500;2023-10-09T17:19:29;9.63;;;8.00;;
13834;SDS011;6988;52.614;13.500;2023-10-09T17:24:22;9.17;;;8.27;;
13834;SDS011;6988;52.614;13.500;2023-10-09T17:29:15;9.43;;;8.03;;
13834;SDS011;6988;52.614;13.500;2023-10-09T17:34:07;10.60;;;9.13;;
13834;SDS011;6988;52.614;13.500;2023-10-09T17:38:59;10.03;;;8.43;;
13834;SDS011;6988;52.614;13.500;2023-10-09T17:43:54;9.47;;;8.07;;
13834;SDS011;6988;52.614;13.500;2023-10-09T17:48:49;9.37;;;8.37;;
13834;SDS011;6988;52.614;13.500;2023-10-09T17:53:41;10.03;;;8.60;;
13834;SDS011;6988;52.614;13.500;2023-10-09T17:58:34;9.50;;;8.50;;
13834;SDS011;6988;52.614;13.500;2023-10-09T18:03:26;11.63;;;9.77;;
13834;SDS011;6988;52.614;13.500;2023-10-09T18:08:21;12.50;;;9.77;;
13834;SDS011;6988;52.614;13.500;2023-10-09T18:13:15;16.87;;;14.33;;
13834;SDS011;6988;52.614;13.500;2023-10-09T18:18:08;12.03;;;10.27;;
13834;SDS011;6988;52.614;13.500;2023-10-09T18:23:03;16.47;;;11.20;;
13834;SDS011;6988;52.614;13.500;2023-10-09T18:28:00;13.13;;;10.30;;
13834;SDS011;6988;52.614;13.500;2023-10-09T18:32:52;13.27;;;11.73;;
13834;SDS011;6988;52.614;13.500;2023-10-09T18:37:46;13.70;;;12.30;;
13834;SDS011;6988;52.614;13.500;2023-10-09T18:42:38;13.93;;;12.43;;
13834;SDS011;6988;52.614;13.500;2023-10-09T18:47:32;18.23;;;12.33;;
13834;SDS011;6988;52.614;13.500;2023-10-09T18:52:28;18.03;;;13.77;;
13834;SDS011;6988;52.614;13.500;2023-10-09T18:57:20;14.03;;;12.40;;
13834;SDS011;6988;52.614;13.500;2023-10-09T19:02:14;16.07;;;13.37;;
13834;SDS011;6988;52.614;13.500;2023-10-09T19:07:09;16.60;;;14.40;;
13834;SDS011;6988;52.614;13.500;2023-10-09T19:12:01;16.60;;;14.27;;
13834;SDS011;6988;52.614;13.500;2023-10-09T19:16:58;16.47;;;13.90;;
13834;SDS011;6988;52.614;13.500;2023-10-09T19:21:49;15.73;;;12.70;;
13834;SDS011;6988;52.614;13.500;2023-10-09T19:26:44;18.13;;;14.53;;
13834;SDS011;6988;52.614;13.500;2023-10-09T19:31:36;17.17;;;13.87;;
13834;SDS011;6988;52.614;13.500;2023-10-09T19:36:28;14.60;;;12.10;;
13834;SDS011;6988;52.614;13.500;2023-10-09T19:41:22;14.93;;;12.33;;
13834;SDS011;6988;52.614;13.500;2023-10-09T19:46:16;13.37;;;11.90;;
13834;SDS011;6988;52.614;13.500;2023-10-09T19:51:07;16.77;;;12.40;;
13834;SDS011;6988;52.614;13.500;2023-10-09T19:56:02;14.90;;;12.77;;
13834;SDS011;6988;52.614;13.500;2023-10-09T20:00:57;16.17;;;13.57;;
13834;SDS011;6988;52.614;13.500;2023-10-09T20:05:50;16.53;;;13.10;;
13834;SDS011;6988;52.614;13.500;2023-10-09T20:10:43;16.30;;;12.70;;
13834;SDS011;6988;52.614;13.500;2023-10-09T20:15:36;15.20;;;12.73;;
13834;SDS011;6988;52.614;13.500;2023-10-09T20:20:33;14.47;;;12.27;;
13834;SDS011;6988;52.614;13.500;2023-10-09T20:25:29;16.40;;;12.53;;
13834;SDS011;6988;52.614;13.500;2023-10-09T20:30:21;14.90;;;13.00;;
13834;SDS011;6988;52.614;13.500;2023-10-09T20:35:14;17.33;;;13.80;;
13834;SDS011;6988;52.614;13.500;2023-10-09T20:40:06;19.27;;;14.20;;
13834;SDS011;6988;52.614;13.500;2023-10-09T20:45:09;20.27;;;14.90;;
13834;SDS011;6988;52.614;13.500;2023-10-09T20:50:01;20.23;;;15.13;;
13834;SDS011;6988;52.614;13.500;2023-10-09T20:54:56;19.43;;;15.60;;
13834;SDS011;6988;52.614;13.500;2023-10-09T20:59:48;18.67;;;15.40;;
13834;SDS011;6988;52.614;13.500;2023-10-09T21:04:44;20.87;;;16.03;;
13834;SDS011;6988;52.614;13.500;2023-10-09T21:09:36;18.67;;;15.40;;
13834;SDS011;6988;52.614;13.500;2023-10-09T21:14:28;17.67;;;14.50;;
13834;SDS011;6988;52.614;13.500;2023-10-09T21:19:21;19.57;;;16.07;;
13834;SDS011;6988;52.614;13.500;2023-10-09T21:24:14;20.13;;;16.30;;
13834;SDS011;6988;52.614;13.500;2023-10-09T21:29:06;20.87;;;16.30;;
13834;SDS011;6988;52.614;13.500;2023-10-09T21:34:01;22.73;;;17.33;;
13834;SDS011;6988;52.614;13.500;2023-10-09T21:38:55;18.07;;;15.50;;
13834;SDS011;6988;52.614;13.500;2023-10-09T21:43:48;17.87;;;15.27;;
13834;SDS011;6988;52.614;13.500;2023-10-09T22:03:59;23.93;;;19.27;;
13834;SDS011;6988;52.614;13.500;2023-10-09T22:08:53;25.80;;;19.97;;
13834;SDS011;6988;52.614;13.500;2023-10-09T22:13:46;25.13;;;18.93;;
13834;SDS011;6988;52.614;13.500;2023-10-09T22:18:38;22.90;;;17.93;;
13834;SDS011;6988;52.614;13.500;2023-10-09T22:23:32;23.53;;;17.50;;
13834;SDS011;6988;52.614;13.500;2023-10-09T22:28:25;20.53;;;16.47;;
13834;SDS011;6988;52.614;13.500;2023-10-09T22:33:23;20.30;;;16.73;;
13834;SDS011;6988;52.614;13.500;2023-10-09T22:38:15;18.80;;;15.97;;
13834;SDS011;6988;52.614;13.500;2023-10-09T22:43:12;20.63;;;15.90;;
13834;SDS011;6988;52.614;13.500;2023-10-09T22:48:04;18.87;;;15.73;;
13834;SDS011;6988;52.614;13.500;2023-10-09T22:52:56;19.60;;;16.17;;
13834;SDS011;6988;52.614;13.500;2023-10-09T22:57:52;20.23;;;15.70;;
13834;SDS011;6988;52.614;13.500;2023-10-09T23:02:48;20.40;;;16.53;;
13834;SDS011;6988;52.614;13.500;2023-10-09T23:07:46;22.20;;;15.80;;
13834;SDS011;6988;52.614;13.500;2023-10-09T23:12:49;20.07;;;15.43;;
13834;SDS011;6988;52.614;13.500;2023-10-09T23:17:41;19.73;;;15.03;;
13834;SDS011;6988;52.614;13.500;2023-10-09T23:22:39;18.80;;;14.77;;
13834;SDS011;6988;52.614;13.500;2023-10-09T23:27:38;17.60;;;13.50;;
13834;SDS011;6988;52.614;13.500;2023-10-09T23:32:37;19.43;;;14.97;;
13834;SDS011;6988;52.614;13.500;2023-10-09T23:37:47;20.60;;;14.57;;
13834;SDS011;6988;52.614;13.500;2023-10-09T23:42:54;18.93;;;14.80;;
13834;SDS011;6988;52.614;13.500;2023-10-09T23:47:48;18.93;;;14.30;;
13834;SDS011;6988;52.614;13.500;2023-10-09T23:52:41;19.90;;;13.97;;
13834;SDS011;6988;52.614;13.500;2023-10-09T23:57:38;17.43;;;12.97;;
